Philadelphia, Pennsylvania
Traffic Map
Current Weather Conditions
Philadelphia, Pennsylvania
Overcast
Overcast

Feels Like: 7°
Wind Chill: Ceiling: 3000
Heat Index: Visibility: 10mi
Dew Point: Wind: 8mph
Humidity: 66% Direction: 40° (NE)
Pressure: 30.2in Gusts: 0mph
Raw Report DataKPHL 301054Z 04007KT 10SM OVC030 09/03 A3020 RMK AO2 SLP227 T00940033
Traffic Incident Summary
Active as of:
Severity:
Category:
InformationThere was an issue retrieving the traffic information for this location. Please try a different location or try again shortly.
Advertisements
Track Severe Weather on mobile